METAR Data
IDs: Format: Raw Decoded Include TAF

Data at: 0203 UTC 01 Mar 2021

EPGD 010200Z 26008KT 3400 BR OVC002 02/01 Q1032